Time;durP1;ratioP1;P1;durP2;ratioP2;P2;SDS_P1;SDS_P2;PMS_P1;PMS_P2;Temp;Humidity;BMP_temperature;BMP_pressure;BME280_temperature;BME280_humidity;BME280_pressure;Samples;Min_cycle;Max_cycle;Signal;HPM_P1;HPM_P2
2021/03/21 00:02:14;;;;;;;59.20;5.70;;;2.80;1.00;;;;;;5138563;27;20344;-67
2021/03/21 00:04:40;;;;;;;60.78;6.03;;;2.90;1.00;;;;;;5138710;27;20290;-67
2021/03/21 00:07:08;;;;;;;59.83;6.15;;;2.90;1.00;;;;;;5138688;27;20313;-67
2021/03/21 00:09:34;;;;;;;59.72;5.78;;;2.90;1.00;;;;;;5138801;27;20203;-67
2021/03/21 00:12:01;;;;;;;59.55;6.35;;;2.90;1.00;;;;;;5138457;27;20640;-67
2021/03/21 00:14:30;;;;;;;58.53;5.38;;;2.90;1.00;;;;;;5138501;27;20641;-67
2021/03/21 00:16:57;;;;;;;58.92;5.22;;;3.00;1.00;;;;;;5135734;27;20223;-67
2021/03/21 00:19:23;;;;;;;58.83;5.35;;;3.00;1.00;;;;;;5135415;27;20213;-67
2021/03/21 00:21:49;;;;;;;58.90;5.47;;;3.00;1.00;;;;;;5135161;27;20247;-67
2021/03/21 00:24:17;;;;;;;59.75;5.75;;;3.00;1.00;;;;;;5135669;27;20294;-67
2021/03/21 00:26:43;;;;;;;63.88;5.97;;;3.00;1.00;;;;;;5135453;27;20199;-67
2021/03/21 00:29:10;;;;;;;60.45;6.18;;;3.00;1.00;;;;;;5135114;27;20299;-67
2021/03/21 00:31:37;;;;;;;61.17;6.55;;;3.00;1.00;;;;;;5135400;27;20237;-67
2021/03/21 00:34:03;;;;;;;59.97;5.95;;;3.00;1.00;;;;;;5135177;27;20223;-67
2021/03/21 00:36:30;;;;;;;62.58;6.55;;;3.00;1.00;;;;;;5134816;27;20750;-67
2021/03/21 00:38:56;;;;;;;60.95;5.82;;;3.00;1.00;;;;;;5134755;27;20313;-67
2021/03/21 00:41:27;;;;;;;60.25;6.60;;;3.00;1.00;;;;;;5135148;27;20202;-67
2021/03/21 00:43:55;;;;;;;59.25;5.80;;;3.00;1.00;;;;;;5135147;27;20195;-67
2021/03/21 00:46:22;;;;;;;59.03;5.57;;;3.00;1.00;;;;;;5134906;27;20213;-67
2021/03/21 00:48:48;;;;;;;59.30;6.45;;;3.00;1.00;;;;;;5134658;27;20219;-67
2021/03/21 00:51:16;;;;;;;58.92;5.43;;;3.00;1.00;;;;;;5134772;27;20591;-67
2021/03/21 00:53:43;;;;;;;60.15;5.93;;;3.00;1.00;;;;;;5134488;27;20222;-67
2021/03/21 00:56:18;;;;;;;58.78;5.65;;;3.00;1.00;;;;;;5134846;27;20600;-67
2021/03/21 00:58:45;;;;;;;59.92;5.80;;;3.10;1.00;;;;;;5134729;27;20223;-67
2021/03/21 01:01:11;;;;;;;61.00;5.82;;;3.10;1.00;;;;;;5135104;27;20210;-67
2021/03/21 01:03:38;;;;;;;61.95;5.80;;;3.10;1.00;;;;;;5134426;27;20249;-67
2021/03/21 01:06:07;;;;;;;60.85;6.55;;;3.10;1.00;;;;;;5134280;27;20605;-67
2021/03/21 01:08:37;;;;;;;58.60;5.10;;;3.10;1.00;;;;;;5134623;27;20222;-67
2021/03/21 01:11:06;;;;;;;60.40;5.65;;;3.10;1.00;;;;;;5134430;27;20207;-67
2021/03/21 01:13:35;;;;;;;62.60;5.07;;;3.10;1.00;;;;;;5134230;27;20295;-67
2021/03/21 01:16:04;;;;;;;59.15;5.43;;;3.10;1.00;;;;;;5134456;27;20302;-67
2021/03/21 01:18:33;;;;;;;61.70;5.80;;;3.10;1.00;;;;;;5133893;27;20270;-67
2021/03/21 01:21:00;;;;;;;61.78;6.65;;;3.10;1.00;;;;;;5134135;27;20290;-67
2021/03/21 01:23:27;;;;;;;59.45;5.90;;;3.10;1.00;;;;;;5133968;27;20213;-67
2021/03/21 01:25:54;;;;;;;59.28;5.70;;;3.10;1.00;;;;;;5133990;27;20202;-67
2021/03/21 01:28:23;;;;;;;60.85;5.85;;;3.10;1.00;;;;;;5133468;27;20318;-67
2021/03/21 01:30:50;;;;;;;60.70;5.60;;;3.10;1.00;;;;;;5134073;27;20246;-67
2021/03/21 01:33:18;;;;;;;60.85;5.80;;;3.10;1.00;;;;;;5134085;27;20368;-67
2021/03/21 01:35:44;;;;;;;60.53;5.72;;;3.10;1.00;;;;;;5133907;27;20569;-67
2021/03/21 01:38:11;;;;;;;63.13;6.45;;;3.10;1.00;;;;;;5133928;27;20261;-67
2021/03/21 01:40:38;;;;;;;59.00;6.10;;;3.10;1.00;;;;;;5133820;27;20294;-66
2021/03/21 01:43:05;;;;;;;60.33;5.53;;;3.10;1.00;;;;;;5133663;27;20294;-67
2021/03/21 01:45:40;;;;;;;59.50;5.90;;;3.10;1.00;;;;;;5133529;27;20202;-67
2021/03/21 01:48:15;;;;;;;62.13;7.30;;;3.10;1.00;;;;;;5133869;27;20222;-67
2021/03/21 01:50:48;;;;;;;61.40;6.60;;;3.10;1.00;;;;;;5133581;27;20205;-67
2021/03/21 01:53:17;;;;;;;62.20;6.22;;;3.10;1.00;;;;;;5133329;27;20297;-67
2021/03/21 01:55:44;;;;;;;62.20;6.75;;;3.10;1.00;;;;;;5133419;27;20205;-67
2021/03/21 01:58:11;;;;;;;62.67;6.22;;;3.00;1.00;;;;;;5133273;27;20313;-67
2021/03/21 02:00:39;;;;;;;61.67;6.72;;;3.10;1.00;;;;;;5133586;27;20285;-67
2021/03/21 02:03:06;;;;;;;61.42;6.68;;;3.10;1.00;;;;;;5133199;27;20199;-67
2021/03/21 02:05:36;;;;;;;61.20;7.03;;;3.10;1.00;;;;;;5133259;27;20568;-67
2021/03/21 02:08:41;;;;;;;65.15;10.23;;;3.00;1.00;;;;;;5133241;27;20237;-67
2021/03/21 02:11:16;;;;;;;74.68;13.48;;;3.00;1.00;;;;;;5127989;27;20632;-67
2021/03/21 02:14:00;;;;;;;64.68;10.05;;;3.00;1.00;;;;;;5133147;27;20230;-67
2021/03/21 02:16:31;;;;;;;63.90;9.45;;;3.00;1.00;;;;;;5133260;27;20556;-67
2021/03/21 02:19:08;;;;;;;63.30;8.23;;;3.00;1.00;;;;;;5132902;27;20310;-67
2021/03/21 02:21:39;;;;;;;69.32;9.70;;;3.00;1.00;;;;;;5133048;27;20698;-67
2021/03/21 02:24:34;;;;;;;66.75;9.20;;;3.00;1.00;;;;;;5132799;27;20205;-67
2021/03/21 02:27:12;;;;;;;64.65;9.70;;;3.00;1.00;;;;;;5132818;27;20266;-67
2021/03/21 02:29:49;;;;;;;71.28;14.70;;;3.00;1.00;;;;;;5133105;27;20238;-67
2021/03/21 02:32:22;;;;;;;74.50;16.50;;;3.00;1.00;;;;;;5132740;27;20218;-67
2021/03/21 02:34:59;;;;;;;71.40;15.60;;;3.00;1.00;;;;;;5132634;27;20317;-67
2021/03/21 02:37:33;;;;;;;65.10;10.60;;;3.00;1.00;;;;;;5132687;27;20355;-67
2021/03/21 02:40:17;;;;;;;;;;;;;;;;;;;;;
2021/03/21 02:42:52;;;;;;;60.28;7.70;;;3.00;1.00;;;;;;5132844;27;20199;-67
2021/03/21 02:45:24;;;;;;;60.67;7.10;;;2.90;1.00;;;;;;5132702;27;20231;-67
2021/03/21 02:47:52;;;;;;;61.80;8.23;;;2.90;1.00;;;;;;5132413;27;20233;-67
2021/03/21 02:50:22;;;;;;;59.45;6.78;;;2.90;1.00;;;;;;5132525;27;20195;-67
2021/03/21 02:52:53;;;;;;;61.25;8.48;;;2.90;1.00;;;;;;5132569;27;20207;-67
2021/03/21 02:55:26;;;;;;;65.80;7.05;;;2.90;1.00;;;;;;5132443;27;20226;-67
2021/03/21 02:57:57;;;;;;;61.70;7.78;;;2.90;1.00;;;;;;5132578;27;20229;-67
2021/03/21 03:00:30;;;;;;;63.53;7.70;;;2.90;1.00;;;;;;5132784;27;20207;-67
2021/03/21 03:02:59;;;;;;;61.53;7.88;;;2.90;1.00;;;;;;5132501;27;20242;-67
2021/03/21 03:05:30;;;;;;;68.15;11.02;;;2.90;1.00;;;;;;5132479;27;20222;-67
2021/03/21 03:07:59;;;;;;;66.80;10.40;;;2.90;1.00;;;;;;5132599;27;20717;-67
2021/03/21 03:10:30;;;;;;;65.57;9.13;;;2.90;1.00;;;;;;5132424;27;20297;-67
2021/03/21 03:13:05;;;;;;;62.40;8.30;;;2.90;1.00;;;;;;5132104;27;20209;-67
2021/03/21 03:15:32;;;;;;;63.45;8.73;;;2.90;1.00;;;;;;5132487;27;20222;-67
2021/03/21 03:18:07;;;;;;;64.75;9.10;;;2.90;1.00;;;;;;5132264;27;20229;-67
2021/03/21 03:20:39;;;;;;;66.03;9.75;;;2.90;1.00;;;;;;5132316;27;20296;-67
2021/03/21 03:23:14;;;;;;;65.28;10.00;;;2.90;1.00;;;;;;5132329;27;20199;-67
2021/03/21 03:25:45;;;;;;;62.70;8.85;;;2.90;1.00;;;;;;5132178;27;20209;-67
2021/03/21 03:28:18;;;;;;;63.90;8.40;;;2.90;1.00;;;;;;5132484;27;20254;-67
2021/03/21 03:30:51;;;;;;;63.28;8.80;;;2.90;1.00;;;;;;5132321;27;20207;-67
2021/03/21 03:33:19;;;;;;;65.20;8.68;;;2.80;1.00;;;;;;5132135;27;20234;-67
2021/03/21 03:35:45;;;;;;;66.47;9.82;;;2.80;1.00;;;;;;5131889;27;20223;-67
2021/03/21 03:38:14;;;;;;;64.68;9.38;;;2.80;1.00;;;;;;5131863;27;20235;-67
2021/03/21 03:40:43;;;;;;;65.00;9.05;;;2.80;1.00;;;;;;5132388;27;20254;-67
2021/03/21 03:43:23;;;;;;;63.90;8.85;;;2.80;1.00;;;;;;5131979;27;20207;-67
2021/03/21 03:46:03;;;;;;;61.22;8.85;;;2.80;1.00;;;;;;5132044;27;20293;-67
2021/03/21 03:48:40;;;;;;;63.28;8.68;;;2.80;1.00;;;;;;5131837;27;20233;-67
2021/03/21 03:51:12;;;;;;;66.30;9.77;;;2.80;1.00;;;;;;5133970;27;20202;-67
2021/03/21 03:53:52;;;;;;;62.28;8.52;;;2.80;1.00;;;;;;5135889;27;20302;-67
2021/03/21 03:56:23;;;;;;;61.80;7.85;;;2.80;1.00;;;;;;5136065;27;20289;-67
2021/03/21 03:59:03;;;;;;;60.70;7.97;;;2.70;1.00;;;;;;5135744;27;20762;-67
2021/03/21 04:01:36;;;;;;;64.00;8.85;;;2.70;1.00;;;;;;5135907;27;20753;-67
2021/03/21 04:04:14;;;;;;;64.15;8.60;;;2.70;1.00;;;;;;5135762;27;20293;-67
2021/03/21 04:06:46;;;;;;;64.13;7.32;;;2.70;1.00;;;;;;5135765;27;20216;-67
2021/03/21 04:09:19;;;;;;;61.33;7.22;;;2.70;1.00;;;;;;5135458;27;20210;-67
2021/03/21 04:11:53;;;;;;;62.05;6.97;;;2.70;1.00;;;;;;5135703;27;20290;-67
2021/03/21 04:14:25;;;;;;;61.50;7.05;;;2.70;1.00;;;;;;5135963;27;20222;-67
2021/03/21 04:16:57;;;;;;;61.85;7.50;;;2.70;1.00;;;;;;5135488;27;20293;-67
2021/03/21 04:19:29;;;;;;;63.95;7.25;;;2.70;1.00;;;;;;5135563;27;20203;-67
2021/03/21 04:21:59;;;;;;;63.22;7.18;;;2.70;1.00;;;;;;5135441;27;20211;-67
2021/03/21 04:24:30;;;;;;;64.07;7.13;;;2.70;1.00;;;;;;5135623;27;20556;-67
2021/03/21 04:27:02;;;;;;;60.17;6.85;;;2.70;1.00;;;;;;5135648;27;20223;-67
2021/03/21 04:29:34;;;;;;;61.20;6.75;;;2.70;1.00;;;;;;5135298;27;20301;-67
2021/03/21 04:32:08;;;;;;;60.70;6.70;;;2.70;1.00;;;;;;5135260;27;20761;-67
2021/03/21 04:34:35;;;;;;;61.75;7.53;;;2.70;1.00;;;;;;5135174;27;20333;-67
2021/03/21 04:37:03;;;;;;;60.67;7.15;;;2.70;1.00;;;;;;5135096;27;20309;-67
2021/03/21 04:39:33;;;;;;;62.13;7.30;;;2.70;1.00;;;;;;5135569;27;20203;-67
2021/03/21 04:42:05;;;;;;;62.13;7.63;;;2.70;1.00;;;;;;5135006;27;20250;-67
2021/03/21 04:44:36;;;;;;;62.35;6.70;;;2.70;1.00;;;;;;5135079;27;20231;-67
2021/03/21 04:47:10;;;;;;;61.92;7.75;;;2.70;1.00;;;;;;5134955;27;20589;-67
2021/03/21 04:49:37;;;;;;;62.22;6.85;;;2.70;1.00;;;;;;5134807;27;20301;-67
2021/03/21 04:52:12;;;;;;;61.20;7.43;;;2.60;1.00;;;;;;5134847;27;20203;-67
2021/03/21 04:54:40;;;;;;;63.10;7.30;;;2.60;1.00;;;;;;5134724;27;20347;-67
2021/03/21 04:57:19;;;;;;;60.15;6.95;;;2.60;1.00;;;;;;5134707;27;20223;-67
2021/03/21 04:59:46;;;;;;;62.28;7.60;;;2.60;1.00;;;;;;5134823;27;20580;-67
2021/03/21 05:02:18;;;;;;;61.70;7.30;;;2.50;1.00;;;;;;5133588;27;20706;-67
2021/03/21 05:04:47;;;;;;;60.80;7.30;;;2.50;1.00;;;;;;5134631;27;20289;-67
2021/03/21 05:07:29;;;;;;;59.90;6.85;;;2.50;1.00;;;;;;5134478;27;20648;-67
2021/03/21 05:10:00;;;;;;;58.53;6.78;;;2.50;1.00;;;;;;5134423;27;20234;-67
2021/03/21 05:12:35;;;;;;;59.72;6.55;;;2.50;1.00;;;;;;5134618;27;20285;-67
2021/03/21 05:15:11;;;;;;;62.13;8.25;;;2.50;1.00;;;;;;5134401;27;20601;-67
2021/03/21 05:17:47;;;;;;;59.95;6.93;;;2.50;1.00;;;;;;5134251;27;20226;-67
2021/03/21 05:20:22;;;;;;;60.15;6.43;;;2.60;1.00;;;;;;5134066;27;20198;-67
2021/03/21 05:22:56;;;;;;;60.97;7.15;;;2.60;1.00;;;;;;5134386;27;20213;-67
2021/03/21 05:25:27;;;;;;;61.20;7.65;;;2.60;1.00;;;;;;5134323;27;20203;-67
2021/03/21 05:27:59;;;;;;;60.92;7.35;;;2.60;1.00;;;;;;5134145;27;20248;-67
2021/03/21 05:30:29;;;;;;;58.60;6.18;;;2.60;1.00;;;;;;5134131;27;20259;-67
2021/03/21 05:32:58;;;;;;;59.33;6.75;;;2.60;1.00;;;;;;5134315;27;20245;-67
2021/03/21 05:35:28;;;;;;;68.70;7.63;;;2.70;1.00;;;;;;5133749;27;20286;-67
2021/03/21 05:38:05;;;;;;;62.25;7.00;;;2.70;1.00;;;;;;5134205;27;20570;-67
2021/03/21 05:41:05;;;;;;;61.78;8.18;;;2.70;1.00;;;;;;5133807;27;20696;-67
2021/03/21 05:43:59;;;;;;;62.22;7.43;;;2.70;1.00;;;;;;5107619;27;20620;-67
2021/03/21 05:47:14;;;;;;;62.00;7.25;;;2.70;1.00;;;;;;5120262;27;20293;-67
2021/03/21 05:50:23;;;;;;;60.95;7.50;;;2.70;1.00;;;;;;5133838;27;20305;-67
2021/03/21 05:53:05;;;;;;;61.85;7.15;;;2.80;1.00;;;;;;5123102;27;20199;-67
2021/03/21 05:55:57;;;;;;;61.45;7.18;;;2.70;1.00;;;;;;5133404;27;20279;-67
2021/03/21 05:58:51;;;;;;;59.47;6.28;;;2.80;1.00;;;;;;5120135;27;20702;-67
2021/03/21 06:01:43;;;;;;;59.33;6.53;;;2.80;1.00;;;;;;5133477;27;20255;-67
2021/03/21 06:04:42;;;;;;;61.92;6.65;;;2.80;1.00;;;;;;5133492;27;20572;-67
2021/03/21 06:07:52;;;;;;;64.15;6.50;;;2.80;1.00;;;;;;5128108;27;20223;-67
2021/03/21 06:10:56;;;;;;;63.15;6.80;;;2.80;1.00;;;;;;5133335;27;20215;-67
2021/03/21 06:13:33;;;;;;;60.90;6.80;;;2.80;1.00;;;;;;5133110;27;20226;-67
2021/03/21 06:16:23;;;;;;;59.63;6.60;;;2.80;1.00;;;;;;5133160;27;20233;-67
2021/03/21 06:19:28;;;;;;;59.05;6.35;;;2.80;1.00;;;;;;5133001;27;20261;-67
2021/03/21 06:22:32;;;;;;;62.60;6.60;;;2.90;1.00;;;;;;5124029;27;20296;-67
2021/03/21 06:25:17;;;;;;;60.53;6.10;;;2.80;1.00;;;;;;5133259;27;20227;-67
2021/03/21 06:28:09;;;;;;;60.00;6.55;;;2.90;1.00;;;;;;5132774;27;20325;-67
2021/03/21 06:31:01;;;;;;;59.30;5.80;;;2.90;1.00;;;;;;5133083;27;20293;-67
2021/03/21 06:33:42;;;;;;;61.05;6.80;;;3.00;1.00;;;;;;5132781;27;20222;-67
2021/03/21 06:36:23;;;;;;;59.58;6.28;;;3.00;1.00;;;;;;5132626;27;20202;-67
2021/03/21 06:39:13;;;;;;;65.07;6.75;;;3.10;1.00;;;;;;5132787;27;20592;-67
2021/03/21 06:42:10;;;;;;;61.45;6.65;;;3.10;1.00;;;;;;5133129;27;20234;-67
2021/03/21 06:45:02;;;;;;;61.80;6.88;;;3.20;1.00;;;;;;5127899;27;20243;-67
2021/03/21 06:47:53;;;;;;;61.88;7.55;;;3.20;1.00;;;;;;5132762;27;20222;-67
2021/03/21 06:50:48;;;;;;;59.85;6.65;;;3.30;1.00;;;;;;5132877;27;20207;-67
2021/03/21 06:53:20;;;;;;;59.90;6.88;;;3.40;1.00;;;;;;5132528;27;20289;-67
2021/03/21 06:55:53;;;;;;;61.35;6.68;;;3.40;1.00;;;;;;5132526;27;20222;-67
2021/03/21 06:58:58;;;;;;;59.92;6.43;;;3.50;1.00;;;;;;5132718;27;20254;-67
2021/03/21 07:01:37;;;;;;;61.03;6.90;;;3.50;1.00;;;;;;5132585;27;20289;-67
2021/03/21 07:04:57;;;;;;;61.67;6.40;;;3.50;1.00;;;;;;5132387;27;20290;-67
2021/03/21 07:08:00;;;;;;;61.63;7.78;;;3.50;1.00;;;;;;5068899;28;20229;-67
2021/03/21 07:11:01;;;;;;;60.33;7.28;;;3.60;1.00;;;;;;5132374;27;20285;-67
2021/03/21 07:14:05;;;;;;;59.05;5.88;;;3.60;1.00;;;;;;5132400;27;20212;-67
2021/03/21 07:17:10;;;;;;;60.50;6.55;;;3.60;1.00;;;;;;5132551;27;20653;-67
2021/03/21 07:20:11;;;;;;;60.95;6.80;;;3.70;1.00;;;;;;5132518;27;20362;-67
2021/03/21 07:23:21;;;;;;;60.30;6.28;;;3.70;1.00;;;;;;5132210;27;20245;-67
2021/03/21 07:26:19;;;;;;;62.63;7.43;;;3.70;1.00;;;;;;5134122;27;20198;-67
2021/03/21 07:29:34;;;;;;;61.30;6.55;;;3.70;1.00;;;;;;5136324;27;20738;-67
2021/03/21 07:32:34;;;;;;;65.05;7.47;;;3.70;1.00;;;;;;5136429;27;20294;-67
2021/03/21 07:35:27;;;;;;;62.20;7.32;;;3.80;1.00;;;;;;5136213;27;20227;-67
2021/03/21 07:38:04;;;;;;;62.17;8.70;;;3.80;1.00;;;;;;5136192;27;20223;-67
2021/03/21 07:40:41;;;;;;;62.90;6.32;;;3.90;1.00;;;;;;5136420;27;20199;-67
2021/03/21 07:43:34;;;;;;;60.65;7.00;;;3.90;1.00;;;;;;5136123;27;20238;-67
2021/03/21 07:46:30;;;;;;;60.33;6.43;;;3.90;1.00;;;;;;5135951;27;20199;-67
2021/03/21 07:49:18;;;;;;;65.05;6.90;;;3.90;1.00;;;;;;5136088;27;20309;-67
2021/03/21 07:52:01;;;;;;;60.15;6.47;;;4.00;1.00;;;;;;5105812;27;20297;-67
2021/03/21 07:54:34;;;;;;;59.90;6.22;;;4.00;1.00;;;;;;5135774;27;20227;-67
2021/03/21 07:57:08;;;;;;;59.28;6.47;;;4.10;1.00;;;;;;5136171;27;20344;-67
2021/03/21 07:59:35;;;;;;;59.90;6.80;;;4.10;1.00;;;;;;5135825;27;20209;-67
2021/03/21 08:02:03;;;;;;;62.92;7.40;;;4.20;1.00;;;;;;5135667;27;20681;-67
2021/03/21 08:04:34;;;;;;;58.92;6.35;;;4.20;1.00;;;;;;5135781;27;20624;-67
2021/03/21 08:07:02;;;;;;;60.67;6.60;;;4.20;1.00;;;;;;5135591;27;20239;-67
2021/03/21 08:09:33;;;;;;;60.13;6.97;;;4.30;1.00;;;;;;5135525;27;20203;-67
2021/03/21 08:12:10;;;;;;;60.70;6.40;;;4.30;1.00;;;;;;5135593;27;20234;-67
2021/03/21 08:14:43;;;;;;;61.17;6.88;;;4.40;1.00;;;;;;5135652;27;20689;-67
2021/03/21 08:17:23;;;;;;;60.88;6.65;;;4.40;1.00;;;;;;5135256;27;20317;-67
2021/03/21 08:19:52;;;;;;;61.25;7.55;;;4.50;1.00;;;;;;5135358;27;20290;-67
2021/03/21 08:22:23;;;;;;;60.70;6.13;;;4.60;1.00;;;;;;5135478;27;20617;-67
2021/03/21 08:24:50;;;;;;;60.30;5.72;;;4.70;1.00;;;;;;5135383;27;20203;-67
2021/03/21 08:27:23;;;;;;;59.25;5.70;;;4.80;1.00;;;;;;5135376;27;20341;-67
2021/03/21 08:29:58;;;;;;;58.80;5.25;;;4.90;1.00;;;;;;5135124;27;20202;-67
2021/03/21 08:32:28;;;;;;;59.58;5.18;;;5.00;1.00;;;;;;5135333;27;20294;-67
2021/03/21 08:34:54;;;;;;;62.10;6.03;;;5.00;1.00;;;;;;5134871;27;20724;-67
2021/03/21 08:37:35;;;;;;;57.63;4.57;;;5.00;1.00;;;;;;5133580;27;20716;-67
2021/03/21 08:40:17;;;;;;;58.17;4.65;;;5.10;1.00;;;;;;5134967;27;20203;-67
2021/03/21 08:42:45;;;;;;;60.35;4.88;;;5.20;1.00;;;;;;5134899;27;20713;-67
2021/03/21 08:45:29;;;;;;;60.00;5.30;;;5.30;1.00;;;;;;5134921;27;20226;-67
2021/03/21 08:48:01;;;;;;;59.33;4.88;;;5.40;1.00;;;;;;5134798;27;20227;-67
2021/03/21 08:50:34;;;;;;;58.85;5.45;;;5.40;1.00;;;;;;5134666;27;20333;-67
2021/03/21 08:53:00;;;;;;;57.72;4.95;;;5.40;1.00;;;;;;5134999;27;20289;-66
2021/03/21 08:55:30;;;;;;;58.72;5.43;;;5.40;1.00;;;;;;5134786;27;20231;-67
2021/03/21 08:57:57;;;;;;;59.55;5.13;;;5.40;1.00;;;;;;5134601;27;20309;-66
2021/03/21 09:00:35;;;;;;;60.13;5.55;;;5.50;1.00;;;;;;5134674;27;20307;-66
2021/03/21 09:03:18;;;;;;;58.78;5.70;;;5.50;1.00;;;;;;5134920;27;20242;-67
2021/03/21 09:05:52;;;;;;;58.47;5.20;;;5.60;1.00;;;;;;5134740;27;20202;-66
2021/03/21 09:08:23;;;;;;;61.40;5.50;;;5.70;1.00;;;;;;5134420;27;20718;-66
2021/03/21 09:10:53;;;;;;;58.85;5.10;;;5.80;1.00;;;;;;5134154;27;20287;-65
2021/03/21 09:13:22;;;;;;;64.53;5.53;;;5.90;1.00;;;;;;5133084;27;20615;-66
2021/03/21 09:16:01;;;;;;;59.42;5.40;;;5.80;1.00;;;;;;5134299;27;20671;-66
2021/03/21 09:18:31;;;;;;;60.97;5.22;;;5.80;1.00;;;;;;5134413;27;20230;-66
2021/03/21 09:21:17;;;;;;;59.65;6.20;;;5.70;1.00;;;;;;5134321;27;20295;-66
2021/03/21 09:24:12;;;;;;;58.67;5.60;;;5.70;1.00;;;;;;5133830;27;20237;-66
2021/03/21 09:26:43;;;;;;;60.63;6.20;;;5.70;1.00;;;;;;5118372;27;20322;-66
2021/03/21 09:29:29;;;;;;;59.33;5.47;;;5.70;1.00;;;;;;5134206;27;20603;-66
2021/03/21 09:31:59;;;;;;;62.80;5.53;;;5.70;1.00;;;;;;5133965;27;20294;-66
2021/03/21 09:34:35;;;;;;;59.78;5.75;;;5.80;1.00;;;;;;5133723;27;20779;-66
2021/03/21 09:37:06;;;;;;;58.97;5.72;;;5.80;1.00;;;;;;5133748;27;20310;-66
2021/03/21 09:39:34;;;;;;;59.80;5.25;;;5.80;1.00;;;;;;5133920;27;20301;-66
2021/03/21 09:42:05;;;;;;;59.08;5.43;;;5.80;1.00;;;;;;5133796;27;20791;-66
2021/03/21 09:44:36;;;;;;;61.13;6.22;;;5.80;1.00;;;;;;5133784;27;20199;-66
2021/03/21 09:47:28;;;;;;;59.65;5.50;;;5.80;1.00;;;;;;5133737;27;20231;-66
2021/03/21 09:50:02;;;;;;;59.33;5.55;;;5.80;1.00;;;;;;5126152;27;20210;-66
2021/03/21 09:52:51;;;;;;;59.72;5.57;;;5.90;1.00;;;;;;5133721;27;20289;-66
2021/03/21 09:55:27;;;;;;;60.03;5.90;;;6.00;1.00;;;;;;5133302;27;20706;-66
2021/03/21 09:58:24;;;;;;;59.95;5.80;;;6.10;1.00;;;;;;5133450;27;20223;-66
2021/03/21 10:00:58;;;;;;;60.47;5.90;;;6.20;1.00;;;;;;5133539;27;20234;-66
2021/03/21 10:03:27;;;;;;;61.67;5.78;;;6.40;1.00;;;;;;5133204;27;20289;-66
2021/03/21 10:06:04;;;;;;;59.80;6.20;;;6.40;1.00;;;;;;5133669;27;20306;-66
2021/03/21 10:08:52;;;;;;;59.40;5.60;;;6.60;1.00;;;;;;5133398;27;20668;-66
2021/03/21 10:11:27;;;;;;;60.33;6.00;;;6.70;1.00;;;;;;5133430;27;20286;-66
2021/03/21 10:13:53;;;;;;;59.67;6.38;;;6.80;1.00;;;;;;5132941;27;20242;-66
2021/03/21 10:16:35;;;;;;;60.63;6.20;;;6.90;1.00;;;;;;5133399;27;20343;-66
2021/03/21 10:19:06;;;;;;;59.60;6.50;;;7.10;1.00;;;;;;5130818;27;20206;-66
2021/03/21 10:21:36;;;;;;;59.60;5.53;;;7.20;1.00;;;;;;5133149;27;20682;-66
2021/03/21 10:24:21;;;;;;;62.83;7.20;;;7.20;1.00;;;;;;5133059;27;20294;-66
2021/03/21 10:27:27;;;;;;;62.03;6.68;;;7.20;1.00;;;;;;5130331;27;20249;-66
2021/03/21 10:30:23;;;;;;;61.20;7.03;;;7.20;1.00;;;;;;5133017;27;20202;-66
2021/03/21 10:32:51;;;;;;;60.45;6.80;;;7.30;1.00;;;;;;5133163;27;20188;-66
2021/03/21 10:35:53;;;;;;;60.95;6.68;;;7.40;1.00;;;;;;5132959;27;20315;-66
2021/03/21 10:38:53;;;;;;;61.25;6.53;;;7.50;1.00;;;;;;5132785;27;20651;-66
2021/03/21 10:41:52;;;;;;;59.80;6.30;;;7.60;1.00;;;;;;5129558;27;20214;-66
2021/03/21 10:44:21;;;;;;;60.92;6.80;;;7.40;1.00;;;;;;5132817;27;20686;-66
2021/03/21 10:46:51;;;;;;;59.70;6.40;;;7.30;1.00;;;;;;5132777;27;20199;-66
2021/03/21 10:49:46;;;;;;;60.05;6.20;;;7.30;1.00;;;;;;5132975;27;20282;-66
2021/03/21 10:52:23;;;;;;;60.85;6.82;;;7.20;1.00;;;;;;5132680;27;20207;-66
2021/03/21 10:55:29;;;;;;;59.33;5.95;;;7.10;1.00;;;;;;5132690;27;20238;-66
2021/03/21 10:57:59;;;;;;;59.75;5.95;;;7.00;1.00;;;;;;5132601;27;20222;-66
2021/03/21 11:00:29;;;;;;;60.42;6.75;;;7.00;1.00;;;;;;5131831;27;20298;-66
2021/03/21 11:03:15;;;;;;;61.10;6.63;;;7.10;1.00;;;;;;5132520;27;20579;-66
2021/03/21 11:05:43;;;;;;;62.75;6.63;;;7.00;1.00;;;;;;5132637;27;20615;-66
2021/03/21 11:08:26;;;;;;;59.67;6.03;;;7.00;1.00;;;;;;5132232;27;20223;-66
2021/03/21 11:10:55;;;;;;;61.95;7.07;;;7.00;1.00;;;;;;5132774;27;20357;-66
2021/03/21 11:13:27;;;;;;;59.78;6.25;;;7.00;1.00;;;;;;5132597;27;20300;-66
2021/03/21 11:15:54;;;;;;;62.15;7.60;;;7.00;1.00;;;;;;5132532;27;20668;-66
2021/03/21 11:18:24;;;;;;;62.75;7.75;;;6.90;1.00;;;;;;5132278;27;20227;-66
2021/03/21 11:21:03;;;;;;;63.50;7.38;;;7.10;1.00;;;;;;5132725;27;20213;-66
2021/03/21 11:23:31;;;;;;;62.83;7.78;;;7.20;1.00;;;;;;5132350;27;20203;-66
2021/03/21 11:25:59;;;;;;;62.85;7.25;;;7.30;1.00;;;;;;5132159;27;20209;-66
2021/03/21 11:28:36;;;;;;;65.38;7.78;;;7.40;1.00;;;;;;5132455;27;20311;-67
2021/03/21 11:31:04;;;;;;;61.45;7.75;;;7.50;1.00;;;;;;5132048;27;20204;-66
2021/03/21 11:33:37;;;;;;;61.67;7.35;;;7.50;1.00;;;;;;5132079;27;20238;-66
2021/03/21 11:36:29;;;;;;;63.20;7.93;;;7.50;1.00;;;;;;5132084;27;20314;-66
2021/03/21 11:38:56;;;;;;;63.85;8.13;;;7.40;1.00;;;;;;5117413;27;20574;-66
2021/03/21 11:41:37;;;;;;;63.72;7.80;;;7.50;1.00;;;;;;5132284;28;20234;-66
2021/03/21 11:44:15;;;;;;;66.10;8.18;;;7.50;1.00;;;;;;5132394;27;20638;-66
2021/03/21 11:46:41;;;;;;;62.90;8.70;;;7.50;1.00;;;;;;5132042;27;20203;-66
2021/03/21 11:49:09;;;;;;;62.35;7.03;;;7.40;1.00;;;;;;5132031;27;20217;-66
2021/03/21 11:51:37;;;;;;;60.45;6.30;;;7.40;1.00;;;;;;5131900;27;20207;-66
2021/03/21 11:54:05;;;;;;;60.88;7.35;;;7.30;1.00;;;;;;5131806;27;20206;-66
2021/03/21 11:56:40;;;;;;;61.55;8.25;;;7.30;1.00;;;;;;5132078;27;20313;-66
2021/03/21 11:59:12;;;;;;;62.00;8.23;;;7.30;1.00;;;;;;5131861;27;20241;-66
2021/03/21 12:01:42;;;;;;;60.78;7.00;;;7.30;1.00;;;;;;5131999;27;20295;-66
2021/03/21 12:04:11;;;;;;;61.13;7.20;;;7.30;1.00;;;;;;5131819;27;20639;-66
2021/03/21 12:06:41;;;;;;;62.15;7.50;;;7.20;1.00;;;;;;5132074;27;20287;-66
2021/03/21 12:09:13;;;;;;;61.30;6.80;;;7.10;1.00;;;;;;5132141;27;20573;-66
2021/03/21 12:11:42;;;;;;;61.42;7.28;;;7.00;1.00;;;;;;5133233;27;20319;-66
2021/03/21 12:14:44;;;;;;;60.15;6.68;;;6.90;1.00;;;;;;5135611;27;20200;-66
2021/03/21 12:17:39;;;;;;;62.10;8.07;;;6.80;1.00;;;;;;5135772;27;20225;-66
2021/03/21 12:20:33;;;;;;;61.25;6.75;;;6.90;1.00;;;;;;5121885;27;20206;-66
2021/03/21 12:23:00;;;;;;;61.58;6.65;;;6.80;1.00;;;;;;5135295;27;20294;-66
2021/03/21 12:25:30;;;;;;;60.47;6.30;;;6.80;1.00;;;;;;5135660;27;20291;-66
2021/03/21 12:28:18;;;;;;;61.65;7.50;;;6.80;1.00;;;;;;5135481;27;20321;-66
2021/03/21 12:30:49;;;;;;;60.00;6.88;;;6.90;1.00;;;;;;5135432;27;20203;-66
2021/03/21 12:33:32;;;;;;;60.05;6.85;;;7.00;1.00;;;;;;5135092;27;20327;-66
2021/03/21 12:36:13;;;;;;;59.63;5.85;;;7.00;1.00;;;;;;5135252;27;20223;-66
2021/03/21 12:38:42;;;;;;;60.25;6.30;;;7.10;1.00;;;;;;5135181;27;20230;-66
2021/03/21 12:41:24;;;;;;;63.67;6.85;;;7.30;1.00;;;;;;5135081;27;20203;-66
2021/03/21 12:44:10;;;;;;;59.78;5.72;;;7.40;1.00;;;;;;5134750;27;20293;-66
2021/03/21 12:46:42;;;;;;;59.55;5.90;;;7.70;1.00;;;;;;5135123;27;20228;-66
2021/03/21 12:49:27;;;;;;;60.35;7.15;;;7.90;1.00;;;;;;5135160;27;20645;-66
2021/03/21 12:51:57;;;;;;;59.10;6.30;;;7.90;1.00;;;;;;5134870;27;20205;-66
2021/03/21 12:54:24;;;;;;;62.35;6.90;;;7.80;1.00;;;;;;5135227;27;20214;-67
2021/03/21 12:56:50;;;;;;;60.88;6.43;;;7.60;1.00;;;;;;5134822;27;20328;-67
2021/03/21 12:59:17;;;;;;;61.42;7.10;;;7.50;1.00;;;;;;5135031;27;20284;-67
2021/03/21 13:01:44;;;;;;;61.60;7.18;;;7.40;1.00;;;;;;5134926;27;20591;-67
2021/03/21 13:04:11;;;;;;;63.25;7.60;;;7.30;1.00;;;;;;5134601;27;20216;-67
2021/03/21 13:06:38;;;;;;;66.60;7.67;;;7.30;1.00;;;;;;5134381;27;20691;-66
2021/03/21 13:09:05;;;;;;;61.47;7.83;;;7.20;1.00;;;;;;5134468;27;20449;-66
2021/03/21 13:11:31;;;;;;;61.85;8.02;;;7.10;1.00;;;;;;5134701;27;20474;-66
2021/03/21 13:13:58;;;;;;;63.20;8.10;;;7.10;1.00;;;;;;5134500;27;20214;-66
2021/03/21 13:16:25;;;;;;;61.25;8.30;;;7.10;1.00;;;;;;5134417;27;20313;-66
2021/03/21 13:18:53;;;;;;;67.38;8.35;;;7.10;1.00;;;;;;5134232;27;20311;-66
2021/03/21 13:21:20;;;;;;;60.38;7.22;;;7.10;1.00;;;;;;5134208;27;20293;-66
2021/03/21 13:23:47;;;;;;;60.83;6.97;;;7.20;1.00;;;;;;5133475;27;20231;-67
2021/03/21 13:26:13;;;;;;;62.10;8.48;;;7.20;1.00;;;;;;5134271;27;20287;-67
2021/03/21 13:28:39;;;;;;;61.80;7.85;;;7.20;1.00;;;;;;5134022;27;20805;-67
2021/03/21 13:31:06;;;;;;;63.20;8.20;;;7.10;1.00;;;;;;5134218;27;20642;-67
2021/03/21 13:33:35;;;;;;;60.67;7.10;;;7.20;1.00;;;;;;5133958;27;20639;-67
2021/03/21 13:36:07;;;;;;;61.15;7.90;;;7.10;1.00;;;;;;5133758;27;20319;-67
2021/03/21 13:38:34;;;;;;;61.78;7.93;;;7.10;1.00;;;;;;5134153;27;20612;-67
2021/03/21 13:41:02;;;;;;;63.45;8.23;;;7.10;1.00;;;;;;5134137;27;20345;-67
2021/03/21 13:43:30;;;;;;;61.50;7.45;;;7.10;1.00;;;;;;5133948;27;20302;-67
2021/03/21 13:45:58;;;;;;;62.22;7.97;;;7.10;1.00;;;;;;5133931;27;20199;-67